Time;durP1;ratioP1;P1;durP2;ratioP2;P2;SDS_P1;SDS_P2;PMS_P1;PMS_P2;Temp;Humidity;BMP_temperature;BMP_pressure;BME280_temperature;BME280_humidity;BME280_pressure;Samples;Min_cycle;Max_cycle;Signal;HPM_P1;HPM_P2
2022/11/27 00:00:12;;;;;;;26.47;8.77;;;;;;;;;;5003559;28;20464;-65
2022/11/27 00:02:38;;;;;;;21.27;8.30;;;;;;;;;;4990355;28;20046;-65
2022/11/27 00:05:04;;;;;;;19.03;7.63;;;;;;;;;;4989939;28;20050;-65
2022/11/27 00:07:30;;;;;;;27.70;8.13;;;;;;;;;;4989459;28;20070;-65
2022/11/27 00:09:56;;;;;;;30.70;9.07;;;;;;;;;;4989393;28;20081;-65
2022/11/27 00:12:22;;;;;;;20.53;8.27;;;;;;;;;;4989757;28;20046;-65
2022/11/27 00:14:48;;;;;;;17.43;6.53;;;;;;;;;;4990075;28;20054;-66
2022/11/27 00:17:14;;;;;;;21.00;7.63;;;;;;;;;;4989401;28;20100;-65
2022/11/27 00:19:40;;;;;;;23.43;8.00;;;;;;;;;;4990307;28;20051;-65
2022/11/27 00:22:06;;;;;;;21.27;6.83;;;;;;;;;;4989569;28;20053;-65
2022/11/27 00:24:32;;;;;;;21.93;7.33;;;;;;;;;;4989244;28;20057;-65
2022/11/27 00:26:58;;;;;;;20.90;8.17;;;;;;;;;;4987888;28;20520;-65
2022/11/27 00:29:27;;;;;;;22.93;8.27;;;;;;;;;;4989684;28;20043;-65
2022/11/27 00:31:55;;;;;;;20.13;7.23;;;;;;;;;;4988217;28;20141;-65
2022/11/27 00:34:21;;;;;;;19.27;7.40;;;;;;;;;;4989607;28;20054;-65
2022/11/27 00:36:47;;;;;;;21.63;7.93;;;;;;;;;;4989206;28;20053;-65
2022/11/27 00:39:13;;;;;;;21.83;7.73;;;;;;;;;;4988159;28;20042;-65
2022/11/27 00:41:39;;;;;;;20.33;7.90;;;;;;;;;;5004980;28;20046;-65
2022/11/27 00:44:05;;;;;;;17.37;7.03;;;;;;;;;;5008743;28;20512;-65
2022/11/27 00:46:32;;;;;;;19.57;7.00;;;;;;;;;;5008705;28;20050;-65
2022/11/27 00:49:00;;;;;;;22.70;7.27;;;;;;;;;;5009137;28;20112;-66
2022/11/27 00:51:26;;;;;;;17.37;6.93;;;;;;;;;;5003440;28;20042;-65
2022/11/27 00:53:53;;;;;;;23.73;8.90;;;;;;;;;;5008620;28;20413;-65
2022/11/27 00:56:20;;;;;;;25.03;7.97;;;;;;;;;;5007854;28;20097;-65
2022/11/27 00:58:46;;;;;;;16.53;6.90;;;;;;;;;;5008450;28;20042;-65
2022/11/27 01:01:14;;;;;;;18.83;8.17;;;;;;;;;;5002890;28;20132;-65
2022/11/27 01:03:40;;;;;;;23.63;9.03;;;;;;;;;;4997320;28;20461;-65
2022/11/27 01:06:07;;;;;;;25.97;7.73;;;;;;;;;;4997709;28;20050;-66
2022/11/27 01:08:33;;;;;;;19.77;8.47;;;;;;;;;;4991479;28;20050;-65
2022/11/27 01:11:00;;;;;;;18.67;8.27;;;;;;;;;;4991054;28;20044;-65
2022/11/27 01:13:28;;;;;;;19.53;8.10;;;;;;;;;;4997738;28;20549;-65
2022/11/27 01:16:05;;;;;;;18.97;7.60;;;;;;;;;;4989367;28;20043;-65
2022/11/27 01:18:32;;;;;;;23.07;8.17;;;;;;;;;;5007321;28;20057;-66
2022/11/27 01:20:58;;;;;;;23.40;9.10;;;;;;;;;;5008302;28;20057;-65
2022/11/27 01:23:24;;;;;;;23.07;8.00;;;;;;;;;;5012459;28;20050;-65
2022/11/27 01:25:52;;;;;;;26.30;8.27;;;;;;;;;;5012562;28;20058;-66
2022/11/27 01:28:18;;;;;;;24.60;9.23;;;;;;;;;;4994201;28;20038;-65
2022/11/27 01:30:44;;;;;;;15.80;7.93;;;;;;;;;;4997283;28;20104;-65
2022/11/27 01:33:11;;;;;;;18.00;8.60;;;;;;;;;;5008242;28;20041;-66
2022/11/27 01:35:37;;;;;;;20.80;8.67;;;;;;;;;;5001315;28;20509;-65
2022/11/27 01:38:03;;;;;;;28.40;9.47;;;;;;;;;;5005877;28;20538;-65
2022/11/27 01:40:29;;;;;;;24.57;9.30;;;;;;;;;;5009049;28;20118;-65
2022/11/27 01:42:55;;;;;;;21.60;8.00;;;;;;;;;;5006039;28;20766;-65
2022/11/27 01:45:21;;;;;;;21.83;8.50;;;;;;;;;;4997116;28;20056;-66
2022/11/27 01:47:50;;;;;;;23.87;9.50;;;;;;;;;;5011660;28;20048;-65
2022/11/27 01:50:19;;;;;;;26.13;9.20;;;;;;;;;;5011701;28;20042;-65
2022/11/27 01:52:48;;;;;;;36.23;9.47;;;;;;;;;;4991868;28;20042;-65
2022/11/27 01:55:27;;;;;;;23.77;9.20;;;;;;;;;;4997252;28;20053;-66
2022/11/27 01:57:55;;;;;;;31.77;9.60;;;;;;;;;;5001515;28;20046;-66
2022/11/27 02:00:22;;;;;;;25.47;9.47;;;;;;;;;;4992984;28;20046;-66
2022/11/27 02:02:48;;;;;;;26.33;9.40;;;;;;;;;;4996289;28;20040;-66
2022/11/27 02:05:15;;;;;;;28.70;10.77;;;;;;;;;;5008771;28;20080;-65
2022/11/27 02:07:41;;;;;;;30.47;9.77;;;;;;;;;;4991515;28;20074;-65
2022/11/27 02:10:07;;;;;;;21.07;8.93;;;;;;;;;;4974724;28;20058;-65
2022/11/27 02:12:56;;;;;;;21.00;9.30;;;;;;;;;;4994307;28;20046;-65
2022/11/27 02:15:30;;;;;;;25.50;9.67;;;;;;;;;;4993638;28;20946;-65
2022/11/27 02:17:59;;;;;;;21.67;8.60;;;;;;;;;;5004304;28;20161;-65
2022/11/27 02:20:40;;;;;;;22.40;9.77;;;;;;;;;;4992786;28;20552;-65
2022/11/27 02:23:24;;;;;;;24.27;9.47;;;;;;;;;;5009954;28;20049;-65
2022/11/27 02:25:51;;;;;;;29.33;11.80;;;;;;;;;;5004457;28;20129;-65
2022/11/27 02:28:20;;;;;;;22.40;9.20;;;;;;;;;;4995144;28;20608;-65
2022/11/27 02:30:50;;;;;;;18.33;8.70;;;;;;;;;;5004747;28;20034;-65
2022/11/27 02:33:19;;;;;;;28.07;9.10;;;;;;;;;;5000734;28;20564;-65
2022/11/27 02:35:57;;;;;;;22.57;9.80;;;;;;;;;;5001474;28;20564;-66
2022/11/27 02:38:27;;;;;;;28.13;11.00;;;;;;;;;;5003220;28;20046;-65
2022/11/27 02:41:09;;;;;;;27.77;10.37;;;;;;;;;;4993540;28;20456;-66
2022/11/27 02:43:40;;;;;;;19.93;8.67;;;;;;;;;;5008900;28;20489;-66
2022/11/27 02:46:07;;;;;;;24.70;10.97;;;;;;;;;;4996445;28;20048;-65
2022/11/27 02:48:36;;;;;;;20.60;9.17;;;;;;;;;;5001778;28;20042;-65
2022/11/27 02:51:03;;;;;;;24.87;9.13;;;;;;;;;;4997246;28;20583;-66
2022/11/27 02:53:31;;;;;;;26.70;8.77;;;;;;;;;;5010856;28;20046;-66
2022/11/27 02:55:58;;;;;;;20.07;8.23;;;;;;;;;;5008387;28;20042;-65
2022/11/27 02:58:26;;;;;;;13.50;7.20;;;;;;;;;;5010027;28;20067;-66
2022/11/27 03:00:53;;;;;;;21.30;8.90;;;;;;;;;;5008034;28;20752;-66
2022/11/27 03:03:22;;;;;;;18.80;7.63;;;;;;;;;;5002785;28;20049;-66
2022/11/27 03:05:49;;;;;;;27.00;7.23;;;;;;;;;;5003027;28;20042;-66
2022/11/27 03:08:31;;;;;;;24.43;7.83;;;;;;;;;;4996857;28;20390;-66
2022/11/27 03:11:03;;;;;;;19.10;7.20;;;;;;;;;;5006803;28;20465;-66
2022/11/27 03:13:31;;;;;;;22.40;7.30;;;;;;;;;;4996422;28;20045;-66
2022/11/27 03:16:06;;;;;;;36.90;8.87;;;;;;;;;;5004659;28;20058;-66
2022/11/27 03:18:38;;;;;;;22.43;8.27;;;;;;;;;;4977979;28;20054;-66
2022/11/27 03:21:08;;;;;;;22.67;8.03;;;;;;;;;;5004256;28;20057;-66
2022/11/27 03:23:34;;;;;;;23.53;7.50;;;;;;;;;;4991466;28;20038;-66
2022/11/27 03:26:00;;;;;;;22.30;7.27;;;;;;;;;;4995288;28;20081;-66
2022/11/27 03:28:27;;;;;;;20.87;7.17;;;;;;;;;;4988491;28;20046;-66
2022/11/27 03:30:54;;;;;;;21.40;6.83;;;;;;;;;;5004657;28;20054;-66
2022/11/27 03:33:20;;;;;;;15.23;6.00;;;;;;;;;;4996041;28;20673;-66
2022/11/27 03:35:46;;;;;;;17.13;6.80;;;;;;;;;;5000095;28;20141;-66
2022/11/27 03:38:12;;;;;;;12.67;5.90;;;;;;;;;;4997759;28;20065;-66
2022/11/27 03:40:45;;;;;;;24.53;8.40;;;;;;;;;;5008153;28;20050;-66
2022/11/27 03:43:20;;;;;;;23.13;7.72;;;;;;;;;;5008520;28;20141;-66
2022/11/27 03:45:49;;;;;;;17.57;6.83;;;;;;;;;;5007506;28;20112;-66
2022/11/27 03:48:23;;;;;;;17.17;6.00;;;;;;;;;;4992848;28;20117;-66
2022/11/27 03:50:49;;;;;;;20.50;6.53;;;;;;;;;;4990022;28;20128;-66
2022/11/27 03:53:24;;;;;;;14.73;5.73;;;;;;;;;;5001069;28;20494;-66
2022/11/27 03:56:04;;;;;;;26.33;7.40;;;;;;;;;;5008238;28;20046;-66
2022/11/27 03:58:35;;;;;;;14.20;5.40;;;;;;;;;;5005769;28;20804;-66
2022/11/27 04:01:02;;;;;;;17.03;5.87;;;;;;;;;;5002590;28;20640;-66
2022/11/27 04:03:29;;;;;;;17.33;5.50;;;;;;;;;;4993289;28;20390;-66
2022/11/27 04:05:55;;;;;;;19.53;5.60;;;;;;;;;;4995515;28;20086;-66
2022/11/27 04:08:22;;;;;;;13.73;6.13;;;;;;;;;;5003445;28;20448;-66
2022/11/27 04:10:48;;;;;;;15.17;4.90;;;;;;;;;;5001642;28;20493;-65
2022/11/27 04:13:15;;;;;;;15.47;6.67;;;;;;;;;;5005343;28;20049;-66
2022/11/27 04:15:41;;;;;;;13.63;6.30;;;;;;;;;;5005936;28;20034;-66
2022/11/27 04:18:07;;;;;;;15.30;4.77;;;;;;;;;;4990247;28;20081;-66
2022/11/27 04:20:33;;;;;;;16.30;5.83;;;;;;;;;;4996471;28;20072;-66
2022/11/27 04:22:59;;;;;;;16.17;6.10;;;;;;;;;;4995423;28;20060;-65
2022/11/27 04:25:25;;;;;;;12.50;5.00;;;;;;;;;;4993708;28;20488;-66
2022/11/27 04:27:51;;;;;;;13.10;5.30;;;;;;;;;;4998288;28;20045;-66
2022/11/27 04:30:17;;;;;;;14.93;5.57;;;;;;;;;;5003452;28;20056;-66
2022/11/27 04:32:43;;;;;;;13.73;5.20;;;;;;;;;;4990799;28;20048;-65
2022/11/27 04:35:10;;;;;;;15.53;4.77;;;;;;;;;;4994966;28;20122;-66
2022/11/27 04:37:36;;;;;;;15.57;6.00;;;;;;;;;;5002634;28;20046;-65
2022/11/27 04:40:02;;;;;;;21.57;5.93;;;;;;;;;;4998255;28;20080;-66
2022/11/27 04:42:28;;;;;;;12.27;4.87;;;;;;;;;;5004365;28;20045;-65
2022/11/27 04:44:54;;;;;;;18.80;6.07;;;;;;;;;;4993283;28;20476;-66
2022/11/27 04:47:20;;;;;;;11.03;4.53;;;;;;;;;;5004530;28;20080;-66
2022/11/27 04:49:46;;;;;;;14.60;5.20;;;;;;;;;;5007062;28;20496;-66
2022/11/27 04:52:12;;;;;;;14.30;4.67;;;;;;;;;;4992076;28;20042;-66
2022/11/27 04:54:38;;;;;;;16.27;4.93;;;;;;;;;;5006170;28;20042;-66
2022/11/27 04:57:04;;;;;;;13.20;4.80;;;;;;;;;;4993836;28;20133;-66
2022/11/27 04:59:31;;;;;;;13.53;4.90;;;;;;;;;;4996434;28;20481;-66
2022/11/27 05:01:57;;;;;;;12.67;5.10;;;;;;;;;;4994598;28;20052;-66
2022/11/27 05:04:23;;;;;;;16.43;5.67;;;;;;;;;;4990708;28;20052;-66
2022/11/27 05:06:49;;;;;;;13.27;4.27;;;;;;;;;;4995367;28;20048;-66
2022/11/27 05:09:16;;;;;;;9.50;4.17;;;;;;;;;;4991111;28;20046;-66
2022/11/27 05:11:42;;;;;;;13.27;4.73;;;;;;;;;;4989338;28;20050;-66
2022/11/27 05:14:15;;;;;;;15.00;5.53;;;;;;;;;;4989039;28;20045;-66
2022/11/27 05:16:42;;;;;;;9.95;3.95;;;;;;;;;;4990069;28;20117;-66
2022/11/27 05:19:09;;;;;;;13.90;5.10;;;;;;;;;;5001605;28;20047;-66
2022/11/27 05:21:35;;;;;;;9.47;4.13;;;;;;;;;;5004303;28;20049;-66
2022/11/27 05:24:01;;;;;;;14.00;4.80;;;;;;;;;;4993208;28;20045;-65
2022/11/27 05:26:27;;;;;;;18.07;5.70;;;;;;;;;;4999290;28;20078;-66
2022/11/27 05:28:53;;;;;;;12.97;4.80;;;;;;;;;;4998955;28;20070;-66
2022/11/27 05:31:20;;;;;;;15.07;5.40;;;;;;;;;;4992100;28;20086;-65
2022/11/27 05:33:46;;;;;;;15.10;4.43;;;;;;;;;;4993015;28;20038;-66
2022/11/27 05:36:12;;;;;;;14.37;4.37;;;;;;;;;;4989379;28;20039;-65
2022/11/27 05:38:38;;;;;;;12.60;3.97;;;;;;;;;;5007667;28;20077;-66
2022/11/27 05:41:04;;;;;;;9.77;4.50;;;;;;;;;;5002914;28;20038;-65
2022/11/27 05:43:30;;;;;;;14.40;4.13;;;;;;;;;;5004339;28;20053;-66
2022/11/27 05:45:56;;;;;;;12.97;4.67;;;;;;;;;;5006324;28;20054;-66
2022/11/27 05:48:22;;;;;;;17.30;4.53;;;;;;;;;;4998856;28;20501;-66
2022/11/27 05:50:48;;;;;;;10.57;3.83;;;;;;;;;;5005635;28;20496;-66
2022/11/27 05:53:14;;;;;;;12.87;5.20;;;;;;;;;;5001246;28;20104;-66
2022/11/27 05:55:40;;;;;;;9.90;4.20;;;;;;;;;;4988145;28;20149;-66
2022/11/27 05:58:06;;;;;;;11.17;4.33;;;;;;;;;;4994068;28;20081;-66
2022/11/27 06:00:32;;;;;;;11.40;4.60;;;;;;;;;;4991799;28;20043;-66
2022/11/27 06:02:58;;;;;;;16.37;4.03;;;;;;;;;;5001557;28;20042;-66
2022/11/27 06:05:24;;;;;;;11.50;4.87;;;;;;;;;;4996916;28;20420;-66
2022/11/27 06:07:50;;;;;;;19.87;6.13;;;;;;;;;;4990102;28;20042;-66
2022/11/27 06:10:16;;;;;;;12.03;4.83;;;;;;;;;;4992337;28;20043;-66
2022/11/27 06:12:42;;;;;;;15.47;4.43;;;;;;;;;;5007178;28;20102;-65
2022/11/27 06:15:08;;;;;;;12.67;4.07;;;;;;;;;;5004301;28;20054;-66
2022/11/27 06:17:34;;;;;;;14.60;5.00;;;;;;;;;;5006166;28;20340;-65
2022/11/27 06:20:00;;;;;;;12.67;4.80;;;;;;;;;;4992717;28;20053;-65
2022/11/27 06:22:26;;;;;;;13.17;4.17;;;;;;;;;;5007083;28;20318;-66
2022/11/27 06:24:52;;;;;;;12.70;4.70;;;;;;;;;;5010964;28;20041;-65
2022/11/27 06:27:18;;;;;;;15.57;5.30;;;;;;;;;;5008420;28;20405;-65
2022/11/27 06:29:44;;;;;;;14.27;5.63;;;;;;;;;;5005055;28;20057;-66
2022/11/27 06:32:10;;;;;;;11.63;4.33;;;;;;;;;;5002930;28;20049;-66
2022/11/27 06:34:36;;;;;;;11.27;4.93;;;;;;;;;;4991781;28;20509;-65
2022/11/27 06:37:02;;;;;;;16.90;4.73;;;;;;;;;;4993665;28;20049;-66
2022/11/27 06:39:28;;;;;;;13.67;4.77;;;;;;;;;;5002788;28;20042;-66
2022/11/27 06:41:54;;;;;;;16.83;5.47;;;;;;;;;;4992040;28;20073;-65
2022/11/27 06:44:20;;;;;;;13.50;5.40;;;;;;;;;;5000630;28;20424;-66
2022/11/27 06:46:46;;;;;;;16.03;5.00;;;;;;;;;;4999854;28;20523;-66
2022/11/27 06:49:13;;;;;;;15.73;4.97;;;;;;;;;;4996792;28;20041;-66
2022/11/27 06:51:39;;;;;;;14.93;5.30;;;;;;;;;;5007922;28;20053;-66
2022/11/27 06:54:05;;;;;;;12.07;5.07;;;;;;;;;;4989781;28;20104;-65
2022/11/27 06:56:31;;;;;;;12.07;5.37;;;;;;;;;;4990824;28;20046;-66
2022/11/27 06:58:59;;;;;;;14.07;4.90;;;;;;;;;;4992612;28;20038;-66
2022/11/27 07:01:25;;;;;;;26.50;7.60;;;;;;;;;;5007511;28;20045;-66
2022/11/27 07:03:52;;;;;;;11.43;5.07;;;;;;;;;;4990929;28;20054;-66
2022/11/27 07:06:19;;;;;;;16.20;6.00;;;;;;;;;;4993394;28;20144;-66
2022/11/27 07:08:46;;;;;;;19.53;5.53;;;;;;;;;;5007912;28;20041;-66
2022/11/27 07:11:15;;;;;;;14.00;5.53;;;;;;;;;;4993792;28;20045;-66
2022/11/27 07:13:41;;;;;;;16.80;5.30;;;;;;;;;;4992203;28;20048;-66
2022/11/27 07:16:08;;;;;;;15.43;6.53;;;;;;;;;;5001484;28;20041;-65
2022/11/27 07:18:38;;;;;;;11.23;5.93;;;;;;;;;;4991714;28;20046;-66
2022/11/27 07:21:04;;;;;;;16.13;5.70;;;;;;;;;;4990511;28;20105;-66
2022/11/27 07:23:31;;;;;;;16.10;7.47;;;;;;;;;;4991684;28;20046;-65
2022/11/27 07:25:57;;;;;;;16.87;5.77;;;;;;;;;;4990522;28;20042;-65
2022/11/27 07:28:23;;;;;;;15.13;5.63;;;;;;;;;;5006060;28;20053;-65
2022/11/27 07:30:56;;;;;;;13.53;5.90;;;;;;;;;;4996613;28;20054;-66
2022/11/27 07:33:22;;;;;;;17.48;5.80;;;;;;;;;;5006900;28;20049;-66
2022/11/27 07:35:48;;;;;;;17.30;7.03;;;;;;;;;;4986480;28;20050;-66
2022/11/27 07:38:14;;;;;;;13.93;6.03;;;;;;;;;;5008248;28;20045;-66
2022/11/27 07:40:40;;;;;;;15.77;5.77;;;;;;;;;;4993035;28;20450;-66
2022/11/27 07:43:06;;;;;;;14.43;6.50;;;;;;;;;;4989860;28;20417;-65
2022/11/27 07:45:32;;;;;;;14.20;5.93;;;;;;;;;;4992923;28;20563;-65
2022/11/27 07:47:58;;;;;;;15.13;5.80;;;;;;;;;;4994176;28;20050;-66
2022/11/27 07:50:24;;;;;;;17.87;6.90;;;;;;;;;;5006627;28;20335;-66
2022/11/27 07:52:50;;;;;;;15.30;6.50;;;;;;;;;;5005301;28;20424;-65
2022/11/27 07:55:16;;;;;;;11.33;5.40;;;;;;;;;;4990005;28;20493;-66
2022/11/27 07:57:42;;;;;;;15.80;7.17;;;;;;;;;;5006911;28;20108;-66
2022/11/27 08:00:09;;;;;;;14.47;6.33;;;;;;;;;;5009411;28;20781;-65
2022/11/27 08:02:35;;;;;;;17.97;7.10;;;;;;;;;;5016015;28;20399;-65
2022/11/27 08:05:01;;;;;;;14.57;7.53;;;;;;;;;;5010028;28;20050;-65
2022/11/27 08:07:30;;;;;;;18.03;7.50;;;;;;;;;;4997381;28;20410;-66
2022/11/27 08:09:59;;;;;;;17.77;7.43;;;;;;;;;;5007741;28;20081;-66
2022/11/27 08:12:25;;;;;;;14.77;8.03;;;;;;;;;;5008657;28;20153;-65
2022/11/27 08:14:52;;;;;;;15.90;7.53;;;;;;;;;;5009229;28;20046;-66
2022/11/27 08:17:18;;;;;;;15.43;6.93;;;;;;;;;;5007457;28;20129;-65
2022/11/27 08:19:44;;;;;;;14.57;7.27;;;;;;;;;;5003051;28;20134;-65
2022/11/27 08:22:14;;;;;;;14.57;6.97;;;;;;;;;;4989167;28;20121;-65
2022/11/27 08:24:41;;;;;;;13.40;6.93;;;;;;;;;;4987186;28;20062;-65
2022/11/27 08:27:07;;;;;;;14.53;6.50;;;;;;;;;;4988465;28;20050;-65
2022/11/27 08:29:33;;;;;;;14.87;7.30;;;;;;;;;;4988573;28;20068;-66
2022/11/27 08:31:59;;;;;;;12.20;6.77;;;;;;;;;;4988665;28;20412;-65
2022/11/27 08:34:25;;;;;;;16.40;7.30;;;;;;;;;;4989459;28;20043;-65
2022/11/27 08:36:52;;;;;;;16.13;6.67;;;;;;;;;;4989107;28;20050;-66
2022/11/27 08:39:18;;;;;;;16.93;7.40;;;;;;;;;;4988945;28;20074;-65
2022/11/27 08:41:44;;;;;;;19.53;6.73;;;;;;;;;;4989003;28;20058;-66
2022/11/27 08:44:10;;;;;;;18.17;8.03;;;;;;;;;;4989373;28;20050;-66
2022/11/27 08:46:36;;;;;;;15.27;6.73;;;;;;;;;;5008878;28;20052;-66
2022/11/27 08:49:02;;;;;;;15.07;7.97;;;;;;;;;;5006828;28;20046;-65
2022/11/27 08:51:28;;;;;;;15.10;7.00;;;;;;;;;;5006778;28;20416;-66
2022/11/27 08:53:54;;;;;;;16.57;7.07;;;;;;;;;;5008360;28;20045;-66
2022/11/27 08:56:22;;;;;;;16.73;7.87;;;;;;;;;;5008387;28;20053;-66
2022/11/27 08:58:48;;;;;;;18.97;8.33;;;;;;;;;;5002850;28;20508;-65
2022/11/27 09:01:16;;;;;;;13.93;7.67;;;;;;;;;;5008317;28;20053;-65
2022/11/27 09:03:42;;;;;;;16.33;8.23;;;;;;;;;;4971227;28;20529;-65
2022/11/27 09:06:10;;;;;;;17.87;7.97;;;;;;;;;;4988971;28;20072;-65
2022/11/27 09:08:37;;;;;;;19.00;8.60;;;;;;;;;;4988394;28;20066;-65
2022/11/27 09:11:03;;;;;;;22.30;8.53;;;;;;;;;;4988521;28;20046;-66
2022/11/27 09:13:29;;;;;;;20.93;8.73;;;;;;;;;;4988337;28;20057;-66
2022/11/27 09:15:56;;;;;;;22.07;10.90;;;;;;;;;;4988704;28;20046;-66
2022/11/27 09:18:22;;;;;;;23.77;8.87;;;;;;;;;;4987458;28;20046;-66
2022/11/27 09:20:54;;;;;;;19.40;8.33;;;;;;;;;;4988513;28;20042;-66
2022/11/27 09:23:21;;;;;;;29.13;10.23;;;;;;;;;;4988149;28;20232;-66
2022/11/27 09:25:48;;;;;;;26.10;10.63;;;;;;;;;;4988513;28;20049;-66
2022/11/27 09:28:14;;;;;;;23.20;9.73;;;;;;;;;;4988331;28;20065;-66
2022/11/27 09:30:40;;;;;;;21.90;9.80;;;;;;;;;;4988182;28;20049;-66
2022/11/27 09:33:06;;;;;;;27.33;10.47;;;;;;;;;;4988321;28;20050;-66
2022/11/27 09:35:32;;;;;;;23.60;11.23;;;;;;;;;;4988443;28;20054;-66
2022/11/27 09:37:58;;;;;;;26.50;11.07;;;;;;;;;;4988297;28;20050;-66
2022/11/27 09:40:24;;;;;;;24.80;10.20;;;;;;;;;;4988528;28;20042;-66
2022/11/27 09:42:56;;;;;;;21.17;10.77;;;;;;;;;;4989259;28;20488;-65
2022/11/27 09:45:24;;;;;;;25.83;11.13;;;;;;;;;;4992213;28;20089;-66
2022/11/27 09:47:54;;;;;;;26.73;11.83;;;;;;;;;;4992413;28;20053;-66
2022/11/27 09:50:23;;;;;;;28.63;11.23;;;;;;;;;;4992024;28;20046;-66
2022/11/27 09:52:54;;;;;;;25.47;11.53;;;;;;;;;;4990998;28;20054;-66
2022/11/27 09:55:20;;;;;;;23.10;10.70;;;;;;;;;;4990771;28;20056;-66
2022/11/27 09:57:52;;;;;;;26.70;12.20;;;;;;;;;;4992127;28;20085;-66
2022/11/27 10:00:19;;;;;;;24.47;11.60;;;;;;;;;;4991909;28;20061;-66
2022/11/27 10:02:45;;;;;;;33.60;11.77;;;;;;;;;;4989976;28;20042;-66
2022/11/27 10:05:32;;;;;;;26.33;11.33;;;;;;;;;;4991674;28;20133;-66
2022/11/27 10:08:07;;;;;;;23.00;12.07;;;;;;;;;;4993272;28;20148;-66
2022/11/27 10:10:40;;;;;;;31.23;12.47;;;;;;;;;;4990956;28;20061;-66
2022/11/27 10:13:24;;;;;;;22.77;11.57;;;;;;;;;;4990369;28;20424;-66
2022/11/27 10:15:50;;;;;;;29.27;12.23;;;;;;;;;;4988443;28;20144;-66
2022/11/27 10:18:28;;;;;;;28.67;11.50;;;;;;;;;;4989402;28;20137;-66
2022/11/27 10:20:57;;;;;;;27.17;11.77;;;;;;;;;;4989864;28;20458;-66
2022/11/27 10:23:32;;;;;;;27.53;11.37;;;;;;;;;;4988525;28;20480;-66
2022/11/27 10:26:03;;;;;;;29.53;11.63;;;;;;;;;;4989687;28;20042;-66
2022/11/27 10:28:38;;;;;;;28.30;11.97;;;;;;;;;;4989746;28;20078;-66
2022/11/27 10:31:04;;;;;;;28.37;11.77;;;;;;;;;;4989746;28;20054;-67
2022/11/27 10:33:45;;;;;;;28.20;12.20;;;;;;;;;;4990873;28;20051;-66
2022/11/27 10:36:17;;;;;;;18.23;10.87;;;;;;;;;;4990819;28;20100;-66
2022/11/27 10:38:44;;;;;;;31.20;12.77;;;;;;;;;;4990886;28;20054;-67
2022/11/27 10:41:15;;;;;;;32.53;12.77;;;;;;;;;;4990743;28;20054;-67
2022/11/27 10:43:41;;;;;;;29.33;11.70;;;;;;;;;;4990206;28;20061;-66
2022/11/27 10:46:23;;;;;;;24.73;12.37;;;;;;;;;;4990853;28;20062;-66
2022/11/27 10:48:49;;;;;;;24.80;12.23;;;;;;;;;;4990724;28;20046;-67
2022/11/27 10:51:18;;;;;;;27.97;12.63;;;;;;;;;;4989455;28;20421;-66
2022/11/27 10:53:47;;;;;;;28.40;11.23;;;;;;;;;;4988746;28;20046;-66
2022/11/27 10:56:32;;;;;;;27.23;10.43;;;;;;;;;;4989478;28;20129;-67
2022/11/27 10:59:00;;;;;;;22.53;10.97;;;;;;;;;;4990295;28;20096;-66
2022/11/27 11:01:28;;;;;;;25.70;11.00;;;;;;;;;;4990382;28;20121;-67
2022/11/27 11:04:06;;;;;;;24.83;11.67;;;;;;;;;;4990451;28;20046;-66
2022/11/27 11:06:33;;;;;;;29.77;11.77;;;;;;;;;;4989415;28;20523;-66
2022/11/27 11:09:00;;;;;;;23.20;10.50;;;;;;;;;;4989978;28;20141;-66
2022/11/27 11:11:27;;;;;;;31.23;11.87;;;;;;;;;;4989072;28;20058;-66
2022/11/27 11:13:54;;;;;;;25.70;12.37;;;;;;;;;;4989735;28;20504;-66
2022/11/27 11:16:26;;;;;;;25.70;12.23;;;;;;;;;;4990240;28;20084;-66
2022/11/27 11:18:53;;;;;;;25.57;11.50;;;;;;;;;;4990213;28;20046;-66
2022/11/27 11:21:22;;;;;;;20.30;9.53;;;;;;;;;;4988915;28;20413;-66
2022/11/27 11:24:11;;;;;;;18.63;9.77;;;;;;;;;;4990136;28;20548;-66
2022/11/27 11:26:39;;;;;;;23.73;10.13;;;;;;;;;;4988467;28;20058;-66
2022/11/27 11:29:21;;;;;;;24.77;10.97;;;;;;;;;;4990039;28;20038;-66
2022/11/27 11:31:47;;;;;;;22.43;10.37;;;;;;;;;;4990180;28;20061;-66
2022/11/27 11:34:22;;;;;;;29.27;10.37;;;;;;;;;;4989740;28;20050;-66
2022/11/27 11:36:58;;;;;;;21.23;10.53;;;;;;;;;;4989576;28;20057;-66
2022/11/27 11:39:26;;;;;;;18.33;10.07;;;;;;;;;;4989935;28;20042;-66
2022/11/27 11:41:52;;;;;;;19.27;9.17;;;;;;;;;;4989675;28;20077;-66
2022/11/27 11:44:24;;;;;;;21.23;9.73;;;;;;;;;;4989658;28;20171;-67
2022/11/27 11:46:54;;;;;;;23.97;10.50;;;;;;;;;;4989259;28;20054;-67
2022/11/27 11:49:27;;;;;;;22.83;10.17;;;;;;;;;;4989641;28;20046;-67
2022/11/27 11:52:02;;;;;;;19.02;9.48;;;;;;;;;;4989699;28;20053;-67
2022/11/27 11:54:46;;;;;;;19.73;9.53;;;;;;;;;;4989435;28;20054;-66
2022/11/27 11:57:27;;;;;;;19.05;9.75;;;;;;;;;;4989553;28;20054;-66
2022/11/27 11:59:56;;;;;;;23.30;10.43;;;;;;;;;;4989343;28;20046;-67
2022/11/27 12:02:41;;;;;;;17.13;8.17;;;;;;;;;;4971868;28;20057;-66
2022/11/27 12:05:16;;;;;;;22.83;9.27;;;;;;;;;;4987424;28;20559;-66
2022/11/27 12:08:00;;;;;;;20.13;9.17;;;;;;;;;;4989170;28;20050;-67
2022/11/27 12:10:32;;;;;;;19.60;8.60;;;;;;;;;;4987754;28;20085;-66
2022/11/27 12:13:15;;;;;;;20.20;9.93;;;;;;;;;;4989334;28;20046;-66
2022/11/27 12:15:46;;;;;;;17.45;8.43;;;;;;;;;;4989080;28;20062;-67
2022/11/27 12:18:12;;;;;;;18.07;8.63;;;;;;;;;;4989065;28;20050;-66
2022/11/27 12:20:38;;;;;;;22.67;9.70;;;;;;;;;;4989145;28;20551;-66
2022/11/27 12:23:04;;;;;;;18.57;9.33;;;;;;;;;;4988810;28;20579;-67
2022/11/27 12:25:50;;;;;;;17.17;9.00;;;;;;;;;;4988708;28;20173;-67
2022/11/27 12:28:22;;;;;;;21.70;10.07;;;;;;;;;;4988951;28;20046;-67
2022/11/27 12:30:58;;;;;;;19.53;9.47;;;;;;;;;;4988996;28;20042;-66
2022/11/27 12:33:35;;;;;;;25.00;8.87;;;;;;;;;;4988624;28;20085;-66
2022/11/27 12:36:20;;;;;;;21.03;9.37;;;;;;;;;;4988695;28;20050;-66
2022/11/27 12:38:53;;;;;;;20.07;8.43;;;;;;;;;;4988759;28;20057;-66
2022/11/27 12:41:19;;;;;;;18.17;8.67;;;;;;;;;;4989043;28;20513;-66
2022/11/27 12:43:47;;;;;;;17.67;8.23;;;;;;;;;;4987345;28;20061;-67
2022/11/27 12:46:26;;;;;;;15.40;9.13;;;;;;;;;;4988741;28;20133;-67
2022/11/27 12:49:05;;;;;;;19.80;8.83;;;;;;;;;;4987282;28;20058;-66
2022/11/27 12:51:39;;;;;;;15.97;8.13;;;;;;;;;;4988561;28;20046;-66
2022/11/27 12:54:10;;;;;;;21.90;8.43;;;;;;;;;;4988479;28;20105;-67
2022/11/27 12:56:36;;;;;;;14.20;7.00;;;;;;;;;;4988604;28;20505;-66
2022/11/27 12:59:07;;;;;;;17.77;8.37;;;;;;;;;;4988162;28;20497;-67
2022/11/27 13:01:35;;;;;;;16.47;8.00;;;;;;;;;;4988463;28;20050;-67
2022/11/27 13:04:21;;;;;;;20.93;9.37;;;;;;;;;;4988738;28;20424;-67
2022/11/27 13:06:56;;;;;;;14.50;7.60;;;;;;;;;;4988515;28;20575;-66
2022/11/27 13:09:26;;;;;;;18.60;8.90;;;;;;;;;;4987404;28;20361;-67
2022/11/27 13:11:53;;;;;;;16.93;8.03;;;;;;;;;;4988178;28;20135;-66
2022/11/27 13:14:22;;;;;;;16.20;8.30;;;;;;;;;;4988210;28;20125;-67
2022/11/27 13:16:52;;;;;;;13.93;8.00;;;;;;;;;;4987919;28;20081;-67
2022/11/27 13:19:21;;;;;;;16.10;9.03;;;;;;;;;;4992339;28;20077;-67
2022/11/27 13:21:47;;;;;;;15.03;9.37;;;;;;;;;;4992483;28;20057;-67
2022/11/27 13:24:14;;;;;;;15.97;8.07;;;;;;;;;;4992282;28;20077;-67
2022/11/27 13:26:44;;;;;;;18.57;9.07;;;;;;;;;;4992078;28;20061;-67
2022/11/27 13:29:17;;;;;;;16.40;8.27;;;;;;;;;;4991639;28;20050;-67
2022/11/27 13:31:44;;;;;;;14.90;7.93;;;;;;;;;;4992171;28;20086;-66
2022/11/27 13:34:17;;;;;;;16.10;8.03;;;;;;;;;;4992217;28;20050;-66
2022/11/27 13:36:43;;;;;;;;;;;;;;;;;;4992269;28;20046;-66
2022/11/27 13:39:21;;;;;;;15.50;8.47;;;;;;;;;;4991743;28;19922;-66
2022/11/27 13:41:48;;;;;;;21.03;8.90;;;;;;;;;;4990653;28;20061;-66
2022/11/27 13:44:24;;;;;;;17.47;8.57;;;;;;;;;;4992224;28;20062;-66
2022/11/27 13:46:53;;;;;;;18.77;9.00;;;;;;;;;;4991618;28;20103;-66
2022/11/27 13:49:28;;;;;;;15.90;8.90;;;;;;;;;;4990338;28;20054;-67
2022/11/27 13:52:04;;;;;;;13.70;8.43;;;;;;;;;;4991945;28;20057;-66
2022/11/27 13:54:30;;;;;;;18.87;9.00;;;;;;;;;;4991856;28;20153;-66
2022/11/27 13:56:56;;;;;;;17.97;8.50;;;;;;;;;;4991690;28;20081;-66
2022/11/27 13:59:24;;;;;;;16.23;8.80;;;;;;;;;;4990305;28;20046;-67
2022/11/27 14:01:57;;;;;;;16.53;7.90;;;;;;;;;;4990429;28;20042;-66
2022/11/27 14:04:24;;;;;;;14.37;8.07;;;;;;;;;;4991150;28;20149;-67
2022/11/27 14:06:51;;;;;;;19.20;7.93;;;;;;;;;;4991551;28;20050;-66
2022/11/27 14:09:17;;;;;;;12.70;7.93;;;;;;;;;;4991570;28;20413;-66
2022/11/27 14:11:45;;;;;;;17.37;8.57;;;;;;;;;;4991351;28;20540;-66
2022/11/27 14:14:19;;;;;;;18.40;8.80;;;;;;;;;;4974059;28;20038;-66
2022/11/27 14:17:00;;;;;;;14.80;8.00;;;;;;;;;;4991598;28;20050;-66
2022/11/27 14:19:52;;;;;;;16.60;8.80;;;;;;;;;;4990006;28;20080;-66
2022/11/27 14:22:37;;;;;;;16.30;8.47;;;;;;;;;;4968527;28;20101;-67
2022/11/27 14:25:16;;;;;;;21.03;9.80;;;;;;;;;;4991707;28;20058;-67
2022/11/27 14:27:42;;;;;;;17.20;7.97;;;;;;;;;;4991152;28;20039;-67
2022/11/27 14:30:20;;;;;;;17.97;9.10;;;;;;;;;;4989067;28;20065;-67
2022/11/27 14:32:48;;;;;;;19.67;9.43;;;;;;;;;;4990755;28;20104;-67
2022/11/27 14:35:21;;;;;;;15.30;8.20;;;;;;;;;;4991001;28;20238;-66
2022/11/27 14:37:47;;;;;;;19.05;8.45;;;;;;;;;;4989630;28;20571;-66